createdAt,value
2023-01-08T00:00:29.330Z,93.40
2023-01-08T00:03:22.200Z,93.52
2023-01-08T00:05:54.839Z,93.72
2023-01-08T00:08:27.561Z,93.54
2023-01-08T00:11:00.207Z,93.83
2023-01-08T00:13:32.823Z,93.80
2023-01-08T00:16:08.355Z,93.54
2023-01-08T00:18:40.935Z,93.30
2023-01-08T00:21:14.307Z,92.90
2023-01-08T00:23:47.190Z,93.00
2023-01-08T00:26:19.655Z,93.19
2023-01-08T00:28:52.338Z,93.12
2023-01-08T00:31:24.997Z,92.95
2023-01-08T00:33:57.525Z,92.70
2023-01-08T00:36:30.783Z,92.88
2023-01-08T00:39:03.376Z,92.98
2023-01-08T00:41:36.895Z,92.71
2023-01-08T00:44:09.919Z,92.71
2023-01-08T00:46:42.441Z,93.00
2023-01-08T00:49:15.053Z,93.13
2023-01-08T00:51:48.623Z,93.03
2023-01-08T00:54:21.201Z,93.20
2023-01-08T00:56:55.882Z,93.03
2023-01-08T00:59:28.430Z,92.81
2023-01-08T01:02:01.798Z,92.76
2023-01-08T01:04:35.082Z,92.75
2023-01-08T01:07:07.761Z,92.70
2023-01-08T01:09:40.813Z,92.61
2023-01-08T01:12:13.364Z,92.70
2023-01-08T01:14:47.099Z,92.69
2023-01-08T01:17:19.917Z,92.52
2023-01-08T01:19:52.593Z,92.23
2023-01-08T01:22:25.151Z,92.44
2023-01-08T01:24:58.492Z,92.04
2023-01-08T01:27:32.470Z,91.93
2023-01-08T01:30:05.635Z,92.10
2023-01-08T01:32:38.199Z,92.39
2023-01-08T01:35:11.824Z,92.49
2023-01-08T01:37:44.364Z,92.52
2023-01-08T01:40:18.084Z,92.04
2023-01-08T01:42:50.539Z,91.89
2023-01-08T01:45:25.327Z,91.91
2023-01-08T01:48:03.765Z,92.06
2023-01-08T01:50:42.396Z,92.28
2023-01-08T01:53:19.332Z,92.35
2023-01-08T01:55:52.025Z,92.33
2023-01-08T01:58:28.246Z,92.39
2023-01-08T02:01:06.873Z,92.13
2023-01-08T02:03:41.128Z,92.11
2023-01-08T02:06:24.448Z,92.02
2023-01-08T02:09:03.798Z,91.68
2023-01-08T02:11:46.275Z,91.21
2023-01-08T02:14:31.070Z,91.09
2023-01-08T02:17:08.299Z,91.12
2023-01-08T02:19:47.471Z,91.01
2023-01-08T02:22:32.852Z,91.04
2023-01-08T02:25:12.997Z,91.04
2023-01-08T02:27:53.974Z,90.97
2023-01-08T02:30:27.346Z,90.48
2023-01-08T02:33:00.027Z,90.48
2023-01-08T02:35:42.391Z,90.67
2023-01-08T02:38:19.611Z,90.91
2023-01-08T02:41:00.200Z,91.44
2023-01-08T02:43:40.841Z,91.73
2023-01-08T02:46:18.398Z,91.62
2023-01-08T02:48:56.025Z,91.76
2023-01-08T02:51:35.109Z,91.81
2023-01-08T02:54:13.045Z,92.04
2023-01-08T02:56:51.597Z,92.00
2023-01-08T02:59:26.280Z,91.87
2023-01-08T03:01:59.495Z,91.37
2023-01-08T03:04:38.670Z,91.41
2023-01-08T03:07:11.702Z,90.95
2023-01-08T03:09:46.827Z,91.09
2023-01-08T03:12:24.669Z,91.39
2023-01-08T03:15:00.768Z,91.57
2023-01-08T03:17:37.877Z,91.89
2023-01-08T03:20:14.495Z,92.12
2023-01-08T03:22:50.868Z,92.68
2023-01-08T03:25:26.138Z,93.09
2023-01-08T03:28:03.988Z,93.16
2023-01-08T03:30:38.185Z,93.35
2023-01-08T03:33:14.201Z,93.40
2023-01-08T03:35:51.932Z,93.33
2023-01-08T03:38:28.475Z,93.38
2023-01-08T03:41:04.820Z,93.44
2023-01-08T03:43:37.400Z,93.28
2023-01-08T03:46:15.415Z,93.20
2023-01-08T03:48:49.942Z,93.18
2023-01-08T03:51:23.388Z,93.07
2023-01-08T03:54:00.960Z,93.18
2023-01-08T03:56:33.471Z,93.28
2023-01-08T03:59:05.968Z,93.35
2023-01-08T04:01:40.165Z,93.34
2023-01-08T04:04:14.045Z,93.21
2023-01-08T04:06:46.717Z,93.12
2023-01-08T04:09:19.200Z,93.10
2023-01-08T04:11:51.671Z,92.84
2023-01-08T04:14:24.336Z,92.89
2023-01-08T04:16:56.828Z,92.88
2023-01-08T04:19:29.316Z,93.07
2023-01-08T04:22:01.808Z,93.38
2023-01-08T04:24:34.264Z,93.66
2023-01-08T04:27:07.145Z,93.67
2023-01-08T04:29:40.245Z,93.66
2023-01-08T04:32:13.115Z,94.16
2023-01-08T04:34:45.614Z,94.55
2023-01-08T04:37:18.169Z,94.68
2023-01-08T04:39:50.676Z,94.75
2023-01-08T04:42:24.906Z,94.93
2023-01-08T04:44:57.849Z,94.69
2023-01-08T04:47:30.331Z,94.82
2023-01-08T04:50:02.826Z,95.16
2023-01-08T04:52:35.366Z,95.42
2023-01-08T04:55:10.152Z,95.75
2023-01-08T04:57:42.989Z,95.70
2023-01-08T05:00:17.500Z,95.83
2023-01-08T05:02:50.042Z,95.78
2023-01-08T05:05:22.668Z,95.82
2023-01-08T05:07:55.205Z,95.77
2023-01-08T05:10:27.756Z,95.44
2023-01-08T05:13:02.720Z,95.39
2023-01-08T05:15:35.372Z,95.15
2023-01-08T05:18:08.927Z,94.84
2023-01-08T05:20:41.441Z,94.67
2023-01-08T05:23:14.352Z,94.58
2023-01-08T05:25:46.793Z,94.51
2023-01-08T05:28:19.326Z,94.26
2023-01-08T05:30:52.384Z,94.10
2023-01-08T05:33:25.671Z,93.83
2023-01-08T05:35:58.169Z,94.04
2023-01-08T05:38:30.683Z,94.12
2023-01-08T05:41:03.546Z,94.01
2023-01-08T05:43:36.267Z,94.00
2023-01-08T05:46:08.937Z,94.02
2023-01-08T05:48:41.466Z,94.01
2023-01-08T05:51:14.311Z,93.95
2023-01-08T05:53:46.808Z,93.83
2023-01-08T05:56:19.272Z,93.77
2023-01-08T05:58:54.769Z,93.88
2023-01-08T06:01:27.359Z,93.88
2023-01-08T06:04:00.027Z,93.82
2023-01-08T06:06:32.577Z,93.56
2023-01-08T06:09:05.234Z,93.52
2023-01-08T06:11:37.795Z,93.69
2023-01-08T06:14:10.296Z,93.90
2023-01-08T06:16:44.183Z,93.97
2023-01-08T06:19:19.072Z,94.01
2023-01-08T06:21:54.404Z,94.20
2023-01-08T06:24:26.893Z,94.24
2023-01-08T06:26:59.414Z,94.26
2023-01-08T06:29:31.869Z,94.25
2023-01-08T06:32:04.407Z,94.19
2023-01-08T06:34:38.501Z,94.15
2023-01-08T06:37:11.250Z,94.24
2023-01-08T06:39:44.123Z,94.19
2023-01-08T06:42:16.610Z,94.18
2023-01-08T06:44:49.130Z,94.02
2023-01-08T06:47:21.664Z,93.97
2023-01-08T06:49:56.745Z,93.91
2023-01-08T06:52:29.389Z,93.71
2023-01-08T06:55:01.971Z,93.66
2023-01-08T06:57:34.511Z,93.34
2023-01-08T07:00:08.606Z,93.25
2023-01-08T07:02:44.071Z,93.33
2023-01-08T07:05:16.914Z,92.91
2023-01-08T07:07:50.986Z,92.79
2023-01-08T07:10:23.810Z,92.67
2023-01-08T07:12:56.864Z,92.30
2023-01-08T07:15:29.473Z,92.23
2023-01-08T07:18:01.947Z,92.36
2023-01-08T07:20:34.399Z,92.61
2023-01-08T07:23:07.966Z,92.88
2023-01-08T07:25:40.517Z,93.01
2023-01-08T07:28:15.971Z,93.01
2023-01-08T07:30:48.539Z,93.07
2023-01-08T07:33:21.419Z,93.17
2023-01-08T07:35:57.235Z,93.29
2023-01-08T07:38:30.826Z,92.97
2023-01-08T07:41:04.709Z,92.73
2023-01-08T07:43:37.311Z,92.72
2023-01-08T07:46:10.253Z,92.65
2023-01-08T07:48:43.125Z,92.31
2023-01-08T07:51:16.098Z,92.20
2023-01-08T07:53:51.416Z,92.39
2023-01-08T07:56:24.590Z,92.43
2023-01-08T07:58:57.275Z,92.27
2023-01-08T08:01:30.185Z,91.76
2023-01-08T08:04:03.038Z,91.57
2023-01-08T08:06:37.080Z,91.46
2023-01-08T08:09:09.786Z,91.62
2023-01-08T08:11:43.167Z,91.45
2023-01-08T08:14:16.101Z,91.49
2023-01-08T08:16:52.518Z,91.31
2023-01-08T08:19:25.314Z,91.23
2023-01-08T08:21:57.975Z,91.07
2023-01-08T08:24:30.541Z,91.27
2023-01-08T08:27:03.233Z,90.96
2023-01-08T08:29:35.959Z,91.00
2023-01-08T08:32:10.980Z,90.72
2023-01-08T08:34:43.945Z,90.55
2023-01-08T08:37:16.624Z,90.03
2023-01-08T08:39:49.501Z,89.76
2023-01-08T08:42:22.340Z,89.65
2023-01-08T08:44:55.060Z,89.84
2023-01-08T08:47:27.789Z,89.42
2023-01-08T08:50:00.455Z,89.42
2023-01-08T08:52:34.481Z,89.46
2023-01-08T08:55:08.237Z,89.09
2023-01-08T08:57:40.742Z,88.93
2023-01-08T09:00:15.232Z,88.89
2023-01-08T09:02:48.206Z,89.14
2023-01-08T09:05:20.971Z,88.73
2023-01-08T09:07:54.431Z,88.31
2023-01-08T09:10:28.267Z,88.82
2023-01-08T09:13:01.013Z,88.68
2023-01-08T09:15:33.681Z,88.35
2023-01-08T09:18:07.156Z,88.29
2023-01-08T09:20:39.992Z,88.48
2023-01-08T09:23:13.005Z,88.69
2023-01-08T09:25:45.910Z,88.46
2023-01-08T09:28:18.711Z,88.23
2023-01-08T09:30:51.321Z,87.88
2023-01-08T09:33:23.903Z,87.41
2023-01-08T09:35:56.485Z,87.19
2023-01-08T09:38:30.086Z,87.39
2023-01-08T09:41:07.483Z,87.63
2023-01-08T09:43:44.423Z,87.21
2023-01-08T09:46:20.419Z,87.22
2023-01-08T09:48:53.805Z,86.84
2023-01-08T09:51:38.174Z,86.84
2023-01-08T09:54:16.212Z,87.25
2023-01-08T09:56:50.378Z,87.11
2023-01-08T09:59:23.365Z,86.39
2023-01-08T10:01:56.256Z,86.03
2023-01-08T10:04:31.472Z,86.14
2023-01-08T10:07:13.754Z,85.73
2023-01-08T10:09:46.305Z,85.69
2023-01-08T10:12:23.500Z,85.44
2023-01-08T10:14:58.541Z,85.48
2023-01-08T10:17:39.504Z,85.39
2023-01-08T10:20:17.486Z,85.32
2023-01-08T10:22:54.235Z,85.31
2023-01-08T10:25:29.741Z,85.25
2023-01-08T10:28:04.467Z,85.01
2023-01-08T10:30:40.226Z,84.97
2023-01-08T10:33:19.388Z,85.68
2023-01-08T10:36:02.320Z,85.32
2023-01-08T10:38:37.284Z,84.63
2023-01-08T10:41:13.953Z,85.03
2023-01-08T10:43:54.442Z,84.47
2023-01-08T10:46:31.710Z,84.06
2023-01-08T10:49:07.999Z,83.97
2023-01-08T10:51:49.611Z,84.21
2023-01-08T10:54:34.512Z,84.67
2023-01-08T10:57:24.079Z,84.95
2023-01-08T10:59:57.392Z,84.56
2023-01-08T11:02:38.950Z,84.23
2023-01-08T11:05:14.163Z,84.76
2023-01-08T11:07:58.900Z,85.09
2023-01-08T11:10:32.236Z,84.79
2023-01-08T11:13:07.465Z,84.07
2023-01-08T11:15:42.304Z,84.19
2023-01-08T11:18:21.087Z,83.90
2023-01-08T11:21:08.216Z,83.90
2023-01-08T11:23:40.869Z,84.73
2023-01-08T11:26:17.131Z,84.77
2023-01-08T11:29:01.490Z,84.72
2023-01-08T11:31:40.960Z,84.78
2023-01-08T11:34:17.994Z,84.70
2023-01-08T11:36:56.692Z,84.71
2023-01-08T11:39:29.323Z,85.06
2023-01-08T11:42:16.365Z,85.12
2023-01-08T11:45:00.334Z,85.41
2023-01-08T11:47:46.419Z,85.71
2023-01-08T11:50:26.002Z,85.21
2023-01-08T11:53:16.212Z,85.54
2023-01-08T11:56:00.360Z,85.37
2023-01-08T11:58:51.561Z,85.15
2023-01-08T12:01:47.642Z,85.30
2023-01-08T12:04:43.657Z,85.29
2023-01-08T12:07:26.775Z,85.18
2023-01-08T12:11:11.912Z,85.22
2023-01-08T12:14:30.122Z,85.56
2023-01-08T12:17:35.349Z,85.40
2023-01-08T12:20:38.084Z,85.03
2023-01-08T12:23:49.382Z,85.08
2023-01-08T12:26:55.507Z,84.90
2023-01-08T12:30:11.035Z,84.95
2023-01-08T12:33:11.818Z,85.04
2023-01-08T12:36:02.323Z,85.02
2023-01-08T12:39:02.825Z,84.98
2023-01-08T12:41:41.390Z,85.16
2023-01-08T12:44:36.011Z,84.99
2023-01-08T12:47:19.814Z,84.92
2023-01-08T12:50:26.561Z,85.21
2023-01-08T12:53:10.290Z,85.07
2023-01-08T12:56:10.769Z,85.18
2023-01-08T12:59:13.163Z,85.36
2023-01-08T13:02:12.037Z,85.55
2023-01-08T13:05:30.693Z,85.36
2023-01-08T13:08:34.350Z,85.42
2023-01-08T13:11:08.137Z,85.18
2023-01-08T13:14:08.068Z,85.20
2023-01-08T13:17:09.113Z,85.31
2023-01-08T13:20:06.183Z,85.14
2023-01-08T13:22:59.572Z,84.96
2023-01-08T13:25:54.676Z,84.60
2023-01-08T13:28:32.035Z,84.69
2023-01-08T13:31:29.197Z,84.39
2023-01-08T13:34:40.667Z,84.40
2023-01-08T13:37:28.295Z,83.85
2023-01-08T13:40:07.163Z,83.95
2023-01-08T13:43:03.660Z,83.61
2023-01-08T13:46:14.898Z,83.56
2023-01-08T13:49:05.297Z,83.53
2023-01-08T13:51:48.007Z,83.27
2023-01-08T13:54:31.600Z,83.17
2023-01-08T13:57:26.276Z,82.97
2023-01-08T14:00:30.343Z,82.97
2023-01-08T14:03:26.988Z,82.66
2023-01-08T14:06:21.853Z,82.62
2023-01-08T14:09:08.748Z,82.53
2023-01-08T14:12:01.006Z,82.75
2023-01-08T14:14:45.270Z,82.62
2023-01-08T14:17:23.658Z,82.83
2023-01-08T14:20:25.945Z,83.08
2023-01-08T14:23:13.216Z,83.51
2023-01-08T14:26:10.465Z,83.61
2023-01-08T14:28:53.909Z,83.73
2023-01-08T14:31:32.550Z,84.01
2023-01-08T14:34:20.044Z,83.90
2023-01-08T14:36:55.893Z,83.92
2023-01-08T14:39:54.353Z,83.83
2023-01-08T14:42:53.747Z,83.61
2023-01-08T14:45:52.157Z,83.35
2023-01-08T14:48:44.277Z,83.01
2023-01-08T14:51:25.222Z,81.78
2023-01-08T14:54:24.824Z,81.78
2023-01-08T14:57:19.293Z,81.69
2023-01-08T15:00:22.788Z,82.02
2023-01-08T15:03:19.562Z,82.25
2023-01-08T15:06:28.233Z,82.49
2023-01-08T15:09:28.393Z,82.81
2023-01-08T15:12:04.101Z,82.99
2023-01-08T15:14:42.662Z,83.45
2023-01-08T15:17:30.549Z,83.76
2023-01-08T15:20:24.054Z,84.05
2023-01-08T15:23:29.441Z,84.33
2023-01-08T15:26:17.861Z,84.60
2023-01-08T15:29:33.206Z,84.90
2023-01-08T15:32:32.309Z,85.10
2023-01-08T15:35:26.013Z,85.37
2023-01-08T15:38:20.912Z,85.43
2023-01-08T15:40:55.633Z,85.66
2023-01-08T15:43:47.113Z,85.78
2023-01-08T15:46:35.641Z,85.80
2023-01-08T15:49:28.369Z,85.93
2023-01-08T15:52:29.824Z,86.10
2023-01-08T15:55:24.647Z,86.09
2023-01-08T15:58:13.588Z,86.01
2023-01-08T16:00:59.520Z,86.03
2023-01-08T16:03:54.987Z,86.11
2023-01-08T16:06:47.908Z,86.23
2023-01-08T16:09:20.739Z,86.45
2023-01-08T16:12:13.799Z,86.54
2023-01-08T16:14:52.363Z,86.68
2023-01-08T16:17:29.939Z,87.00
2023-01-08T16:20:02.709Z,86.98
2023-01-08T16:22:57.238Z,87.20
2023-01-08T16:25:43.145Z,87.02
2023-01-08T16:28:27.935Z,87.10
2023-01-08T16:31:14.242Z,87.22
2023-01-08T16:34:07.370Z,87.42
2023-01-08T16:37:00.189Z,87.35
2023-01-08T16:39:37.486Z,87.45
2023-01-08T16:42:13.319Z,87.39
2023-01-08T16:44:46.855Z,87.23
2023-01-08T16:47:32.955Z,87.16
2023-01-08T16:50:16.143Z,87.12
2023-01-08T16:53:01.768Z,87.22
2023-01-08T16:55:54.513Z,87.48
2023-01-08T16:58:39.992Z,87.58
2023-01-08T17:01:22.749Z,87.91
2023-01-08T17:04:09.440Z,88.12
2023-01-08T17:06:54.813Z,88.68
2023-01-08T17:09:39.842Z,88.75
2023-01-08T17:12:23.528Z,88.66
2023-01-08T17:15:16.523Z,88.88
2023-01-08T17:18:02.690Z,88.70
2023-01-08T17:20:57.463Z,88.74
2023-01-08T17:23:50.343Z,88.93
2023-01-08T17:26:41.716Z,88.76
2023-01-08T17:29:24.802Z,88.67
2023-01-08T17:32:07.637Z,88.67
2023-01-08T17:35:01.502Z,88.63
2023-01-08T17:37:45.652Z,88.76
2023-01-08T17:40:39.050Z,88.81
2023-01-08T17:43:34.602Z,88.90
2023-01-08T17:46:27.408Z,89.14
2023-01-08T17:49:20.602Z,89.19
2023-01-08T17:52:13.346Z,89.37
2023-01-08T17:54:59.052Z,89.33
2023-01-08T17:57:51.958Z,89.23
2023-01-08T18:00:44.819Z,89.55
2023-01-08T18:03:40.368Z,89.71
2023-01-08T18:06:33.231Z,89.85
2023-01-08T18:09:09.718Z,89.62
2023-01-08T18:12:05.271Z,90.16
2023-01-08T18:14:47.797Z,90.68
2023-01-08T18:17:34.185Z,91.41
2023-01-08T18:20:26.945Z,91.95
2023-01-08T18:23:20.155Z,92.72
2023-01-08T18:25:53.088Z,92.67
2023-01-08T18:28:35.838Z,93.01
2023-01-08T18:31:29.685Z,92.87
2023-01-08T18:34:09.007Z,93.09
2023-01-08T18:37:01.923Z,93.15
2023-01-08T18:39:54.671Z,93.08
2023-01-08T18:42:48.337Z,92.92
2023-01-08T18:45:41.555Z,93.31
2023-01-08T18:48:34.179Z,93.18
2023-01-08T18:51:17.550Z,93.06
2023-01-08T18:54:11.857Z,93.50
2023-01-08T18:57:04.779Z,93.83
2023-01-08T18:59:49.069Z,93.64
2023-01-08T19:02:35.122Z,93.58
2023-01-08T19:05:28.034Z,93.37
2023-01-08T19:08:14.906Z,93.71
2023-01-08T19:11:08.407Z,93.67
2023-01-08T19:13:56.924Z,93.51
2023-01-08T19:16:52.117Z,93.48
2023-01-08T19:19:44.875Z,93.46
2023-01-08T19:22:38.280Z,93.10
2023-01-08T19:25:31.120Z,93.07
2023-01-08T19:28:18.544Z,92.85
2023-01-08T19:31:15.219Z,93.10
2023-01-08T19:34:09.041Z,93.78
2023-01-08T19:37:01.845Z,93.85
2023-01-08T19:40:00.472Z,94.07
2023-01-08T19:43:10.733Z,94.25
2023-01-08T19:46:07.573Z,94.34
2023-01-08T19:49:01.534Z,94.72
2023-01-08T19:51:56.646Z,94.76
2023-01-08T19:54:49.862Z,94.87
2023-01-08T19:57:42.832Z,94.88
2023-01-08T20:00:40.764Z,95.19
2023-01-08T20:03:31.974Z,95.29
2023-01-08T20:06:27.084Z,95.37
2023-01-08T20:09:10.347Z,95.44
2023-01-08T20:11:51.762Z,95.61
2023-01-08T20:14:46.553Z,95.23
2023-01-08T20:17:42.755Z,94.90
2023-01-08T20:20:36.229Z,94.39
2023-01-08T20:23:29.030Z,94.07
2023-01-08T20:26:17.450Z,93.97
2023-01-08T20:29:11.774Z,93.64
2023-01-08T20:32:07.145Z,93.51
2023-01-08T20:34:58.972Z,93.78
2023-01-08T20:37:51.747Z,93.70
2023-01-08T20:40:44.606Z,93.88
2023-01-08T20:43:42.523Z,94.03
2023-01-08T20:46:18.179Z,95.08
2023-01-08T20:49:14.922Z,95.94
2023-01-08T20:52:08.686Z,96.23
2023-01-08T20:55:01.462Z,96.07
2023-01-08T20:57:54.924Z,95.71
2023-01-08T21:00:47.841Z,95.53
2023-01-08T21:03:23.594Z,95.19
2023-01-08T21:06:18.341Z,94.78
2023-01-08T21:09:12.371Z,94.37
2023-01-08T21:12:05.480Z,93.75
2023-01-08T21:14:47.442Z,93.46
2023-01-08T21:17:40.242Z,92.94
2023-01-08T21:20:33.109Z,92.50
2023-01-08T21:23:26.316Z,92.01
2023-01-08T21:26:20.066Z,91.53
2023-01-08T21:29:19.837Z,91.32
2023-01-08T21:32:13.305Z,91.17
2023-01-08T21:35:06.542Z,90.74
2023-01-08T21:37:59.309Z,90.24
2023-01-08T21:40:45.940Z,90.01
2023-01-08T21:43:56.481Z,89.05
2023-01-08T21:46:49.780Z,87.19
2023-01-08T21:49:42.681Z,86.36
2023-01-08T21:52:52.514Z,86.11
2023-01-08T21:55:46.555Z,86.34
2023-01-08T21:58:39.370Z,86.65
2023-01-08T22:01:28.225Z,87.09
2023-01-08T22:04:13.520Z,86.80
2023-01-08T22:07:06.351Z,87.24
2023-01-08T22:10:00.614Z,87.40
2023-01-08T22:12:53.391Z,87.64
2023-01-08T22:15:38.844Z,87.97
2023-01-08T22:18:32.374Z,88.53
2023-01-08T22:21:25.163Z,88.43
2023-01-08T22:24:18.240Z,88.25
2023-01-08T22:27:07.921Z,88.27
2023-01-08T22:30:00.676Z,88.24
2023-01-08T22:32:53.794Z,87.86
2023-01-08T22:35:46.596Z,87.86
2023-01-08T22:38:40.343Z,87.59
2023-01-08T22:41:33.075Z,87.74
2023-01-08T22:44:25.932Z,87.73
2023-01-08T22:47:18.695Z,87.57
2023-01-08T22:50:13.199Z,87.80
2023-01-08T22:53:06.226Z,87.95
2023-01-08T22:55:57.876Z,87.99
2023-01-08T22:58:45.407Z,88.14
2023-01-08T23:01:38.844Z,88.26
2023-01-08T23:04:31.905Z,88.59
2023-01-08T23:07:25.723Z,88.87
2023-01-08T23:10:19.075Z,89.12
2023-01-08T23:13:11.979Z,89.02
2023-01-08T23:16:05.353Z,89.08
2023-01-08T23:18:59.446Z,88.93
2023-01-08T23:21:52.168Z,88.45
2023-01-08T23:24:45.928Z,88.51
2023-01-08T23:27:39.405Z,88.03
2023-01-08T23:30:32.929Z,87.63
2023-01-08T23:33:25.709Z,87.59
2023-01-08T23:36:21.289Z,87.55
2023-01-08T23:39:14.431Z,87.59
2023-01-08T23:42:11.134Z,87.43
2023-01-08T23:45:04.033Z,87.62
2023-01-08T23:47:41.697Z,87.77
2023-01-08T23:50:34.728Z,87.58
2023-01-08T23:53:27.774Z,87.29
2023-01-08T23:56:21.085Z,87.54
2023-01-08T23:59:06.839Z,87.62
